Time;durP1;ratioP1;P1;durP2;ratioP2;P2;SDS_P1;SDS_P2;PMS_P1;PMS_P2;Temp;Humidity;BMP_temperature;BMP_pressure;BME280_temperature;BME280_humidity;BME280_pressure;Samples;Min_cycle;Max_cycle;Signal;HPM_P1;HPM_P2
2023/08/10 00:01:25;;;;;;;11.00;3.43;;;11.60;99.90;;;;;;5115202;28;20635;-50
2023/08/10 00:03:51;;;;;;;6.90;3.23;;;11.60;99.90;;;;;;5114810;28;20203;-50
2023/08/10 00:06:16;;;;;;;12.47;4.07;;;11.60;99.90;;;;;;5127791;27;20182;-51
2023/08/10 00:08:42;;;;;;;11.50;3.43;;;11.60;99.90;;;;;;5129117;27;20633;-51
2023/08/10 00:11:07;;;;;;;7.17;3.20;;;11.60;99.90;;;;;;5130442;27;20194;-51
2023/08/10 00:13:33;;;;;;;8.40;3.50;;;11.60;99.90;;;;;;5134942;27;20194;-51
2023/08/10 00:15:59;;;;;;;12.17;3.20;;;11.60;99.90;;;;;;5134059;27;20251;-50
2023/08/10 00:18:25;;;;;;;12.30;3.50;;;11.60;99.90;;;;;;5134835;27;20205;-51
2023/08/10 00:20:50;;;;;;;8.53;3.47;;;11.50;99.90;;;;;;5134010;27;20420;-50
2023/08/10 00:23:16;;;;;;;5.97;3.10;;;11.60;99.90;;;;;;5134970;27;20211;-51
2023/08/10 00:25:41;;;;;;;7.90;2.87;;;11.50;99.90;;;;;;5126110;27;20191;-51
2023/08/10 00:28:07;;;;;;;8.70;3.80;;;11.50;99.90;;;;;;5114235;28;20728;-51
2023/08/10 00:30:32;;;;;;;8.43;3.43;;;11.50;99.90;;;;;;5114334;28;20271;-51
2023/08/10 00:32:58;;;;;;;9.10;3.30;;;11.50;99.90;;;;;;5112957;28;20576;-50
2023/08/10 00:35:24;;;;;;;8.10;3.40;;;11.50;99.90;;;;;;5117558;27;20189;-51
2023/08/10 00:37:50;;;;;;;12.37;3.07;;;11.40;99.90;;;;;;5134785;27;20178;-50
2023/08/10 00:40:16;;;;;;;6.80;3.10;;;11.40;99.90;;;;;;5134732;27;20183;-51
2023/08/10 00:42:41;;;;;;;9.93;3.93;;;11.30;99.90;;;;;;5134288;27;20459;-49
2023/08/10 00:45:09;;;;;;;15.30;3.60;;;11.30;99.90;;;;;;5130880;27;20415;-51
2023/08/10 00:47:35;;;;;;;5.93;3.03;;;11.30;99.90;;;;;;5114024;28;20627;-51
2023/08/10 00:50:01;;;;;;;8.97;3.50;;;11.30;99.90;;;;;;5114061;28;20425;-50
2023/08/10 00:52:27;;;;;;;6.80;3.57;;;11.30;99.90;;;;;;5114227;28;20417;-50
2023/08/10 00:54:53;;;;;;;9.20;3.33;;;11.30;99.90;;;;;;5113380;28;20413;-49
2023/08/10 00:57:19;;;;;;;11.37;3.70;;;11.30;99.90;;;;;;5134143;27;20191;-49
2023/08/10 00:59:46;;;;;;;8.27;3.00;;;11.30;99.90;;;;;;5134394;27;20186;-51
2023/08/10 01:02:11;;;;;;;10.70;3.90;;;11.30;99.90;;;;;;5132219;27;20182;-51
2023/08/10 01:04:37;;;;;;;9.30;3.50;;;11.30;99.90;;;;;;5119356;27;20477;-51
2023/08/10 01:07:21;;;;;;;9.17;3.43;;;11.30;99.90;;;;;;5126515;27;20279;-51
2023/08/10 01:10:09;;;;;;;6.40;3.33;;;11.30;99.90;;;;;;5113358;28;20187;-50
2023/08/10 01:12:55;;;;;;;10.53;3.40;;;11.40;99.90;;;;;;5113279;28;20445;-51
2023/08/10 01:15:35;;;;;;;9.93;3.33;;;11.40;99.90;;;;;;5115251;27;20444;-51
2023/08/10 01:18:05;;;;;;;6.60;3.30;;;11.40;99.90;;;;;;5134388;27;20412;-50
2023/08/10 01:20:31;;;;;;;10.97;3.70;;;11.40;99.90;;;;;;5134260;27;20500;-51
2023/08/10 01:23:01;;;;;;;7.47;3.07;;;11.40;99.90;;;;;;5123441;27;20481;-50
2023/08/10 01:25:28;;;;;;;19.13;3.40;;;11.40;99.90;;;;;;5108070;27;20424;-51
2023/08/10 01:27:54;;;;;;;10.67;3.47;;;11.50;99.90;;;;;;5133882;27;20416;-51
2023/08/10 01:30:20;;;;;;;20.90;3.03;;;11.50;99.90;;;;;;5122787;27;21030;-51
2023/08/10 01:32:46;;;;;;;13.60;3.27;;;11.60;99.90;;;;;;5113021;28;20412;-51
2023/08/10 01:35:12;;;;;;;9.07;3.60;;;11.70;99.90;;;;;;5112097;28;20896;-51
2023/08/10 01:37:39;;;;;;;10.67;3.23;;;11.70;99.90;;;;;;5112971;28;20454;-51
2023/08/10 01:40:09;;;;;;;11.20;3.47;;;11.70;99.90;;;;;;5113056;28;20412;-51
2023/08/10 01:42:35;;;;;;;10.40;3.50;;;11.70;99.90;;;;;;5114958;27;20480;-51
2023/08/10 01:45:04;;;;;;;8.70;2.83;;;11.80;99.90;;;;;;5132691;27;20423;-50
2023/08/10 01:47:50;;;;;;;10.33;2.83;;;11.90;99.90;;;;;;5092954;28;20281;-51
2023/08/10 01:50:18;;;;;;;9.50;3.20;;;11.90;99.90;;;;;;5092481;28;20418;-51
2023/08/10 01:52:51;;;;;;;6.50;3.00;;;12.00;99.90;;;;;;5098605;28;20477;-51
2023/08/10 01:55:17;;;;;;;11.37;2.83;;;12.00;99.90;;;;;;5109821;28;20450;-50
2023/08/10 01:57:44;;;;;;;9.47;3.27;;;12.00;99.90;;;;;;5109891;28;20846;-50
2023/08/10 02:00:12;;;;;;;13.13;2.93;;;12.00;99.90;;;;;;5111166;28;20540;-50
2023/08/10 02:02:38;;;;;;;9.03;3.27;;;12.00;99.90;;;;;;5112434;28;20928;-50
2023/08/10 02:05:05;;;;;;;8.47;2.70;;;11.90;99.90;;;;;;5111448;28;20439;-50
2023/08/10 02:07:30;;;;;;;9.10;2.70;;;11.90;99.90;;;;;;5133132;28;20478;-50
2023/08/10 02:09:57;;;;;;;9.20;3.30;;;11.90;99.90;;;;;;5132013;28;20823;-50
2023/08/10 02:12:23;;;;;;;10.23;2.73;;;11.80;99.90;;;;;;5115057;28;21158;-48
2023/08/10 02:14:49;;;;;;;10.83;2.97;;;11.80;99.90;;;;;;5112796;28;20432;-50
2023/08/10 02:17:15;;;;;;;10.30;3.00;;;11.70;99.90;;;;;;5110872;28;20477;-51
2023/08/10 02:19:41;;;;;;;10.83;3.30;;;11.60;99.90;;;;;;5111969;28;20475;-51
2023/08/10 02:22:07;;;;;;;7.83;2.80;;;11.60;99.90;;;;;;5110807;28;20469;-51
2023/08/10 02:24:32;;;;;;;8.50;3.37;;;11.50;99.90;;;;;;5112114;28;20222;-51
2023/08/10 02:26:59;;;;;;;11.27;3.47;;;11.40;99.90;;;;;;5117174;28;20451;-49
2023/08/10 02:29:25;;;;;;;10.20;3.10;;;11.40;99.90;;;;;;5111548;28;20655;-50
2023/08/10 02:31:50;;;;;;;10.97;3.40;;;11.30;99.90;;;;;;5112233;28;20438;-50
2023/08/10 02:34:16;;;;;;;10.20;3.10;;;11.30;99.90;;;;;;5112558;28;20188;-49
2023/08/10 02:36:41;;;;;;;11.37;3.00;;;11.30;99.90;;;;;;5111412;28;20661;-50
2023/08/10 02:39:07;;;;;;;8.57;3.10;;;11.30;99.90;;;;;;5112367;28;20224;-50
2023/08/10 02:41:33;;;;;;;6.60;3.00;;;11.30;99.90;;;;;;5112873;28;20275;-50
2023/08/10 02:43:58;;;;;;;7.77;2.83;;;11.30;99.90;;;;;;5113634;28;20215;-50
2023/08/10 02:46:24;;;;;;;13.47;3.10;;;11.30;99.90;;;;;;5129385;27;20205;-50
2023/08/10 02:48:50;;;;;;;13.40;2.97;;;11.30;99.90;;;;;;5136994;27;20203;-48
2023/08/10 02:51:15;;;;;;;4.83;2.90;;;11.30;99.90;;;;;;5136777;27;20261;-50
2023/08/10 02:53:43;;;;;;;11.90;3.00;;;11.30;99.90;;;;;;5126340;27;20186;-50
2023/08/10 02:56:09;;;;;;;6.20;2.87;;;11.20;99.90;;;;;;5121101;27;20647;-51
2023/08/10 02:58:34;;;;;;;6.43;3.07;;;11.10;99.90;;;;;;5136593;27;20500;-51
2023/08/10 03:01:06;;;;;;;7.80;2.67;;;11.10;99.90;;;;;;5109769;27;20658;-49
2023/08/10 03:03:31;;;;;;;12.77;3.40;;;11.00;99.90;;;;;;5126629;27;20557;-50
2023/08/10 03:05:57;;;;;;;8.90;2.87;;;11.00;99.90;;;;;;5135294;27;20431;-50
2023/08/10 03:08:23;;;;;;;7.40;2.63;;;10.90;99.90;;;;;;5136348;27;20180;-50
2023/08/10 03:10:49;;;;;;;4.90;2.80;;;10.90;99.90;;;;;;5126585;27;20279;-50
2023/08/10 03:13:14;;;;;;;7.10;3.10;;;10.90;99.90;;;;;;5115685;28;20475;-51
2023/08/10 03:15:40;;;;;;;10.10;3.30;;;10.80;99.90;;;;;;5123862;27;20191;-50
2023/08/10 03:18:06;;;;;;;7.23;2.67;;;10.80;99.90;;;;;;5122407;27;20273;-50
2023/08/10 03:20:31;;;;;;;7.40;2.90;;;10.80;99.90;;;;;;5114809;28;20191;-48
2023/08/10 03:22:57;;;;;;;11.70;3.30;;;10.70;99.90;;;;;;5114276;28;20231;-49
2023/08/10 03:25:22;;;;;;;8.50;3.40;;;10.70;99.90;;;;;;5114719;27;20628;-48
2023/08/10 03:27:48;;;;;;;8.80;3.10;;;10.70;99.90;;;;;;5113602;28;20193;-49
2023/08/10 03:30:14;;;;;;;15.50;3.90;;;10.80;99.90;;;;;;5122007;27;20316;-50
2023/08/10 03:32:40;;;;;;;11.40;3.87;;;10.80;99.90;;;;;;5118505;27;20240;-50
2023/08/10 03:35:06;;;;;;;11.90;3.40;;;10.90;99.90;;;;;;5112655;28;20469;-50
2023/08/10 03:37:32;;;;;;;13.53;3.67;;;11.00;99.90;;;;;;5115018;28;20193;-49
2023/08/10 03:39:58;;;;;;;5.77;3.47;;;11.10;99.90;;;;;;5115488;28;20427;-49
2023/08/10 03:42:24;;;;;;;11.67;3.57;;;11.20;99.90;;;;;;5115336;28;20188;-50
2023/08/10 03:44:49;;;;;;;13.63;3.47;;;11.20;99.90;;;;;;5115077;28;20975;-49
2023/08/10 03:47:15;;;;;;;9.47;3.13;;;11.30;99.90;;;;;;5119125;27;20196;-49
2023/08/10 03:49:41;;;;;;;11.03;3.20;;;11.40;99.90;;;;;;5112814;28;20195;-50
2023/08/10 03:52:06;;;;;;;9.33;3.37;;;11.50;99.90;;;;;;5114498;28;20180;-50
2023/08/10 03:54:32;;;;;;;15.20;4.13;;;11.50;99.90;;;;;;5114533;28;20183;-50
2023/08/10 03:56:58;;;;;;;15.57;3.80;;;11.60;99.90;;;;;;5117398;27;20195;-49
2023/08/10 03:59:23;;;;;;;10.03;3.33;;;11.60;99.90;;;;;;5113619;28;20191;-50
2023/08/10 04:01:49;;;;;;;8.33;3.10;;;11.60;99.90;;;;;;5112608;28;20194;-48
2023/08/10 04:04:15;;;;;;;7.97;3.60;;;11.60;99.90;;;;;;5113017;28;20480;-49
2023/08/10 04:06:41;;;;;;;28.20;3.57;;;11.60;99.90;;;;;;5113724;28;20219;-50
2023/08/10 04:09:06;;;;;;;10.63;4.03;;;11.60;99.90;;;;;;5113669;28;20183;-50
2023/08/10 04:11:32;;;;;;;5.70;3.00;;;11.60;99.90;;;;;;5114537;28;20183;-49
2023/08/10 04:13:58;;;;;;;4.90;2.60;;;11.60;99.90;;;;;;5114209;28;20626;-48
2023/08/10 04:16:23;;;;;;;8.70;2.80;;;11.60;99.90;;;;;;5113166;28;20516;-50
2023/08/10 04:18:49;;;;;;;9.17;2.90;;;11.50;99.90;;;;;;5112856;28;20199;-49
2023/08/10 04:21:15;;;;;;;13.00;3.07;;;11.50;99.90;;;;;;5113257;28;20227;-50
2023/08/10 04:23:41;;;;;;;7.80;3.27;;;11.40;99.90;;;;;;5116043;27;20590;-50
2023/08/10 04:26:07;;;;;;;8.60;3.30;;;11.40;99.90;;;;;;5115178;27;20482;-50
2023/08/10 04:28:33;;;;;;;8.17;2.60;;;11.40;99.90;;;;;;5118309;27;20325;-50
2023/08/10 04:30:59;;;;;;;6.23;3.50;;;11.40;99.90;;;;;;5112985;28;20477;-50
2023/08/10 04:33:24;;;;;;;10.40;3.13;;;11.40;99.90;;;;;;5113034;28;20184;-50
2023/08/10 04:35:51;;;;;;;9.27;3.90;;;11.30;99.90;;;;;;5114055;28;20187;-49
2023/08/10 04:38:16;;;;;;;9.57;3.13;;;11.30;99.90;;;;;;5113890;28;20192;-49
2023/08/10 04:40:43;;;;;;;13.87;3.40;;;11.40;99.90;;;;;;5124400;27;20444;-49
2023/08/10 04:43:08;;;;;;;11.03;4.40;;;11.30;99.90;;;;;;5113502;28;20589;-50
2023/08/10 04:45:34;;;;;;;10.77;4.27;;;11.30;99.90;;;;;;5113535;28;20445;-49
2023/08/10 04:48:00;;;;;;;14.73;4.47;;;11.40;99.90;;;;;;5113850;28;20707;-49
2023/08/10 04:50:25;;;;;;;13.57;4.00;;;11.40;99.90;;;;;;5116750;27;20210;-50
2023/08/10 04:52:51;;;;;;;18.50;5.63;;;11.40;99.90;;;;;;5113510;28;20188;-48
2023/08/10 04:55:18;;;;;;;39.03;5.67;;;11.40;99.90;;;;;;5113127;28;20195;-50
2023/08/10 04:57:43;;;;;;;11.00;4.30;;;11.40;99.90;;;;;;5113362;28;20438;-50
2023/08/10 05:00:12;;;;;;;8.73;3.97;;;11.40;99.90;;;;;;5111821;28;20485;-50
2023/08/10 05:02:38;;;;;;;18.23;3.73;;;11.50;99.90;;;;;;5112734;28;20191;-50
2023/08/10 05:05:05;;;;;;;16.10;4.10;;;11.50;99.90;;;;;;5113504;28;20504;-48
2023/08/10 05:07:31;;;;;;;8.23;3.30;;;11.60;99.90;;;;;;5111814;28;20441;-50
2023/08/10 05:09:57;;;;;;;5.77;2.83;;;11.60;99.90;;;;;;5111480;28;20438;-50
2023/08/10 05:12:23;;;;;;;12.30;4.13;;;11.70;99.90;;;;;;5112931;28;20441;-50
2023/08/10 05:14:49;;;;;;;13.07;4.17;;;11.80;99.90;;;;;;5113359;28;20430;-50
2023/08/10 05:17:14;;;;;;;16.73;3.30;;;11.80;90.20;;;;;;5118060;27;20435;-51
2023/08/10 05:19:40;;;;;;;15.30;4.13;;;11.80;76.80;;;;;;5112361;27;20188;-51
2023/08/10 05:22:06;;;;;;;9.20;3.57;;;11.90;70.20;;;;;;5112742;28;20230;-50
2023/08/10 05:24:34;;;;;;;13.63;3.63;;;11.90;53.30;;;;;;5111311;28;20717;-50
2023/08/10 05:27:01;;;;;;;15.50;4.40;;;11.90;54.50;;;;;;5110604;28;20271;-50
2023/08/10 05:29:26;;;;;;;18.20;4.00;;;11.90;53.20;;;;;;5110779;28;20436;-50
2023/08/10 05:31:52;;;;;;;13.10;4.27;;;11.90;45.50;;;;;;5111866;28;20851;-51
2023/08/10 05:34:17;;;;;;;11.27;3.73;;;12.00;44.00;;;;;;5111569;28;20188;-51
2023/08/10 05:36:43;;;;;;;17.77;4.40;;;12.00;44.40;;;;;;5112229;28;20683;-51
2023/08/10 05:39:09;;;;;;;9.50;3.47;;;12.20;48.20;;;;;;5106251;28;20219;-51
2023/08/10 05:41:34;;;;;;;17.73;3.70;;;12.30;65.90;;;;;;5093313;28;20182;-50
2023/08/10 05:44:00;;;;;;;9.63;3.80;;;12.50;47.30;;;;;;5112354;28;20240;-50
2023/08/10 05:46:25;;;;;;;15.50;3.93;;;12.70;1.00;;;;;;5111553;28;20675;-50
2023/08/10 05:48:51;;;;;;;17.13;4.87;;;12.90;1.00;;;;;;5113134;28;20277;-50
2023/08/10 05:51:17;;;;;;;18.50;5.30;;;13.10;1.00;;;;;;5113410;28;20233;-50
2023/08/10 05:53:42;;;;;;;25.50;4.70;;;13.40;1.00;;;;;;5113937;28;20726;-51
2023/08/10 05:56:08;;;;;;;9.13;4.00;;;13.80;99.90;;;;;;5111607;28;20273;-51
2023/08/10 05:58:34;;;;;;;10.27;3.70;;;14.10;99.90;;;;;;5113049;28;20264;-51
2023/08/10 06:01:01;;;;;;;23.57;3.90;;;14.40;1.00;;;;;;5112772;28;20190;-50
2023/08/10 06:03:27;;;;;;;16.60;3.53;;;14.70;1.00;;;;;;5112717;28;20460;-51
2023/08/10 06:05:54;;;;;;;14.30;3.80;;;15.00;1.00;;;;;;5111937;28;21011;-51
2023/08/10 06:08:19;;;;;;;19.07;4.57;;;15.10;99.90;;;;;;5112650;28;20769;-51
2023/08/10 06:10:49;;;;;;;17.10;4.23;;;15.30;99.90;;;;;;5112903;28;20438;-52
2023/08/10 06:13:15;;;;;;;13.27;3.43;;;15.40;99.90;;;;;;5113265;28;20253;-52
2023/08/10 06:15:40;;;;;;;13.83;4.40;;;15.50;99.90;;;;;;5111464;28;20445;-52
2023/08/10 06:18:06;;;;;;;11.63;4.10;;;15.70;99.90;;;;;;5112606;28;20470;-51
2023/08/10 06:20:33;;;;;;;17.93;4.50;;;15.90;99.90;;;;;;5115669;28;20196;-53
2023/08/10 06:22:59;;;;;;;18.10;3.90;;;15.90;93.40;;;;;;5115671;28;20484;-51
2023/08/10 06:25:25;;;;;;;11.17;3.47;;;16.10;27.50;;;;;;5116206;28;20936;-52
2023/08/10 06:27:51;;;;;;;13.47;3.70;;;16.10;5.10;;;;;;5115616;28;20192;-52
2023/08/10 06:30:17;;;;;;;19.87;3.57;;;16.10;1.00;;;;;;5114813;28;20440;-52
2023/08/10 06:32:43;;;;;;;13.93;3.40;;;16.00;1.00;;;;;;5115501;28;20184;-52
2023/08/10 06:35:09;;;;;;;15.50;3.80;;;16.00;3.90;;;;;;5116739;28;20200;-52
2023/08/10 06:37:36;;;;;;;7.37;3.20;;;16.00;3.30;;;;;;5116465;28;20193;-52
2023/08/10 06:40:08;;;;;;;11.97;3.70;;;16.00;1.00;;;;;;5114490;28;20449;-53
2023/08/10 06:42:33;;;;;;;10.70;3.03;;;16.00;1.00;;;;;;5116515;28;20922;-53
2023/08/10 06:44:59;;;;;;;12.23;3.00;;;16.10;20.10;;;;;;5115207;28;20542;-51
2023/08/10 06:47:24;;;;;;;8.30;2.90;;;16.20;27.10;;;;;;5114797;28;20188;-52
2023/08/10 06:49:51;;;;;;;10.43;2.20;;;16.30;1.00;;;;;;5115512;28;21671;-50
2023/08/10 06:52:16;;;;;;;10.80;1.97;;;16.30;1.00;;;;;;5115187;28;20196;-51
2023/08/10 06:54:42;;;;;;;8.53;1.90;;;16.20;1.00;;;;;;5115570;28;20444;-52
2023/08/10 06:57:07;;;;;;;6.40;2.37;;;16.30;1.00;;;;;;5114901;28;20184;-52
2023/08/10 06:59:33;;;;;;;9.60;2.20;;;16.60;1.00;;;;;;5114102;28;20588;-52
2023/08/10 07:01:59;;;;;;;11.60;2.67;;;16.70;1.00;;;;;;5116222;28;20192;-52
2023/08/10 07:04:25;;;;;;;9.87;2.70;;;16.90;1.00;;;;;;5115565;28;20265;-52
2023/08/10 07:06:52;;;;;;;8.53;2.63;;;17.10;1.00;;;;;;5115066;28;20434;-51
2023/08/10 07:09:18;;;;;;;16.27;3.57;;;17.40;1.00;;;;;;5115071;28;20273;-52
2023/08/10 07:11:44;;;;;;;13.10;2.50;;;17.60;1.00;;;;;;5113938;28;20540;-54
2023/08/10 07:14:10;;;;;;;12.60;2.67;;;17.80;1.00;;;;;;5115192;28;20191;-52
2023/08/10 07:16:35;;;;;;;8.53;2.50;;;18.10;1.00;;;;;;5115268;28;20195;-53
2023/08/10 07:19:01;;;;;;;8.97;2.87;;;18.30;1.00;;;;;;5115413;28;20803;-52
2023/08/10 07:21:27;;;;;;;13.03;3.47;;;18.50;1.00;;;;;;5114391;28;20329;-53
2023/08/10 07:23:52;;;;;;;8.77;2.33;;;18.70;1.00;;;;;;5115733;28;20202;-52
2023/08/10 07:26:18;;;;;;;9.47;2.73;;;19.20;1.00;;;;;;5114033;28;20750;-52
2023/08/10 07:28:45;;;;;;;9.10;2.60;;;19.40;1.00;;;;;;5114203;28;20190;-52
2023/08/10 07:31:11;;;;;;;5.00;1.93;;;19.50;1.00;;;;;;5114102;28;20194;-51
2023/08/10 07:33:37;;;;;;;8.00;2.60;;;19.80;1.00;;;;;;5115259;28;20445;-52
2023/08/10 07:36:03;;;;;;;8.93;2.50;;;20.00;1.00;;;;;;5113896;28;20442;-52
2023/08/10 07:38:28;;;;;;;10.63;2.63;;;20.30;1.00;;;;;;5115031;28;20465;-52
2023/08/10 07:40:54;;;;;;;7.50;1.90;;;20.40;1.00;;;;;;5113117;28;20953;-52
2023/08/10 07:43:20;;;;;;;5.40;1.90;;;20.40;1.00;;;;;;5113319;28;20247;-52
2023/08/10 07:45:46;;;;;;;5.20;2.00;;;19.90;1.00;;;;;;5114267;28;20190;-52
2023/08/10 07:48:11;;;;;;;11.93;2.20;;;19.70;1.00;;;;;;5115461;28;20181;-52
2023/08/10 07:50:37;;;;;;;5.77;1.60;;;19.60;1.00;;;;;;5115603;28;20183;-52
2023/08/10 07:53:03;;;;;;;9.30;1.90;;;19.60;1.00;;;;;;5114051;28;20281;-52
2023/08/10 07:55:29;;;;;;;6.53;1.90;;;19.70;1.00;;;;;;5114556;28;20198;-52
2023/08/10 07:57:54;;;;;;;9.10;1.80;;;20.00;1.00;;;;;;5112860;28;20988;-52
2023/08/10 08:00:20;;;;;;;12.73;2.60;;;20.70;1.00;;;;;;5113209;28;20643;-52
2023/08/10 08:02:46;;;;;;;6.57;1.60;;;20.90;1.00;;;;;;5113699;28;20189;-51
2023/08/10 08:05:11;;;;;;;10.67;1.90;;;21.00;1.00;;;;;;5112616;28;20640;-52
2023/08/10 08:07:37;;;;;;;11.60;1.87;;;20.80;1.00;;;;;;5113231;28;20184;-52
2023/08/10 08:10:03;;;;;;;7.87;1.83;;;20.40;1.00;;;;;;5114187;28;20626;-52
2023/08/10 08:12:29;;;;;;;16.87;2.13;;;20.40;1.00;;;;;;5113911;28;20199;-52
2023/08/10 08:14:55;;;;;;;6.97;2.23;;;20.50;1.00;;;;;;5113715;28;20526;-52
2023/08/10 08:17:21;;;;;;;7.73;2.10;;;20.80;1.00;;;;;;5113926;28;20659;-51
2023/08/10 08:19:47;;;;;;;6.80;1.83;;;21.20;1.00;;;;;;5114190;28;20186;-52
2023/08/10 08:22:13;;;;;;;7.33;1.80;;;21.10;1.00;;;;;;5113224;28;20477;-51
2023/08/10 08:24:38;;;;;;;8.17;1.97;;;20.90;1.00;;;;;;5113945;28;20274;-51
2023/08/10 08:27:04;;;;;;;8.07;1.90;;;20.90;1.00;;;;;;5113891;28;20191;-52
2023/08/10 08:29:34;;;;;;;10.30;2.10;;;20.80;1.00;;;;;;5112999;28;20181;-52
2023/08/10 08:32:00;;;;;;;9.67;2.13;;;21.20;1.00;;;;;;5113603;28;20613;-52
2023/08/10 08:34:25;;;;;;;9.93;1.93;;;21.70;1.00;;;;;;5112214;28;20449;-52
2023/08/10 08:36:51;;;;;;;10.37;1.80;;;22.00;1.00;;;;;;5113161;28;20199;-52
2023/08/10 08:39:17;;;;;;;7.50;1.80;;;22.30;1.00;;;;;;5113281;28;20192;-52
2023/08/10 08:41:45;;;;;;;4.70;1.90;;;22.40;1.00;;;;;;5113319;28;20274;-52
2023/08/10 08:44:10;;;;;;;5.77;2.13;;;22.80;1.00;;;;;;5113581;28;20231;-53
2023/08/10 08:46:40;;;;;;;6.93;2.10;;;23.00;1.00;;;;;;5113398;28;20434;-53
2023/08/10 08:49:06;;;;;;;8.30;2.13;;;22.90;1.00;;;;;;5113720;28;20694;-53
2023/08/10 08:51:32;;;;;;;6.60;1.93;;;23.00;1.00;;;;;;5113766;28;20446;-53
2023/08/10 08:54:02;;;;;;;5.40;1.50;;;22.90;1.00;;;;;;5112430;28;20185;-53
2023/08/10 08:56:27;;;;;;;5.83;1.90;;;22.30;1.00;;;;;;5112535;28;20779;-53
2023/08/10 08:58:53;;;;;;;8.97;2.00;;;21.40;1.00;;;;;;5112537;28;20498;-52
2023/08/10 09:01:19;;;;;;;5.60;1.83;;;20.70;1.00;;;;;;5112823;28;20184;-52
2023/08/10 09:03:45;;;;;;;7.13;1.90;;;20.10;1.00;;;;;;5112351;28;20461;-52
2023/08/10 09:06:11;;;;;;;13.20;2.03;;;20.00;1.00;;;;;;5112256;28;20546;-52
2023/08/10 09:08:42;;;;;;;15.67;2.70;;;19.60;1.00;;;;;;5112101;28;20445;-53
2023/08/10 09:11:08;;;;;;;24.03;2.90;;;19.70;1.00;;;;;;5113008;28;20276;-53
2023/08/10 09:13:34;;;;;;;9.27;1.77;;;20.40;1.00;;;;;;5112710;28;20501;-53
2023/08/10 09:16:08;;;;;;;9.30;1.90;;;21.10;1.00;;;;;;5112133;28;20670;-54
2023/08/10 09:18:35;;;;;;;8.30;1.80;;;21.80;1.00;;;;;;5113110;28;20437;-52
2023/08/10 09:21:18;;;;;;;10.37;1.93;;;22.50;1.00;;;;;;5112250;28;20466;-52
2023/08/10 09:23:49;;;;;;;14.87;1.93;;;22.80;1.00;;;;;;5112647;28;20469;-52
2023/08/10 09:26:19;;;;;;;6.60;1.90;;;23.00;1.00;;;;;;5102385;28;20443;-51
2023/08/10 09:28:47;;;;;;;7.40;2.10;;;23.20;1.00;;;;;;5111859;28;20533;-52
2023/08/10 09:31:13;;;;;;;12.27;2.33;;;23.30;1.00;;;;;;5111028;28;20930;-52
2023/08/10 09:33:39;;;;;;;7.97;2.53;;;23.10;1.00;;;;;;5112759;28;20537;-52
2023/08/10 09:36:06;;;;;;;7.50;2.23;;;22.40;1.00;;;;;;5110455;28;20196;-52
2023/08/10 09:38:33;;;;;;;4.80;1.80;;;21.50;1.00;;;;;;5109479;28;20185;-51
2023/08/10 09:41:21;;;;;;;8.30;2.13;;;21.20;1.00;;;;;;5110548;28;20430;-51
2023/08/10 09:43:47;;;;;;;9.00;2.20;;;21.80;1.00;;;;;;5112925;28;20949;-52
2023/08/10 09:46:14;;;;;;;5.20;2.17;;;22.70;1.00;;;;;;5111772;28;20434;-51
2023/08/10 09:48:46;;;;;;;3.47;1.80;;;22.90;1.00;;;;;;5112695;28;20442;-51
2023/08/10 09:51:13;;;;;;;6.37;1.60;;;22.40;1.00;;;;;;5110118;28;20438;-52
2023/08/10 09:53:40;;;;;;;6.70;1.60;;;21.20;1.00;;;;;;5107318;28;20984;-51
2023/08/10 09:56:09;;;;;;;8.90;2.17;;;20.40;1.00;;;;;;5113066;28;20415;-52
2023/08/10 09:58:40;;;;;;;5.70;1.70;;;19.90;1.00;;;;;;5109900;28;20447;-51
2023/08/10 10:01:07;;;;;;;9.87;2.70;;;19.50;1.00;;;;;;5108808;28;20450;-52
2023/08/10 10:03:33;;;;;;;5.80;1.87;;;19.40;1.00;;;;;;5093541;28;21027;-52
2023/08/10 10:06:00;;;;;;;6.77;3.20;;;19.60;1.00;;;;;;5112413;28;20456;-52
2023/08/10 10:08:26;;;;;;;7.00;2.03;;;20.50;1.00;;;;;;5109742;28;20901;-52
2023/08/10 10:10:56;;;;;;;6.13;1.50;;;21.20;1.00;;;;;;5111674;28;20826;-52
2023/08/10 10:13:22;;;;;;;11.07;2.30;;;21.50;1.00;;;;;;5112793;28;20419;-52
2023/08/10 10:15:48;;;;;;;7.80;2.27;;;22.10;1.00;;;;;;5111839;28;20426;-52
2023/08/10 10:18:14;;;;;;;10.63;2.17;;;22.50;1.00;;;;;;5111751;28;20280;-52
2023/08/10 10:20:43;;;;;;;16.63;2.93;;;23.10;1.00;;;;;;5110363;28;20529;-53
2023/08/10 10:23:16;;;;;;;6.60;1.60;;;23.70;1.00;;;;;;5112625;28;20697;-53
2023/08/10 10:25:59;;;;;;;7.60;1.70;;;23.70;1.00;;;;;;5112603;28;20820;-53
2023/08/10 10:28:27;;;;;;;6.83;1.90;;;23.60;1.00;;;;;;5112828;28;20422;-52
2023/08/10 10:31:05;;;;;;;6.03;1.77;;;23.40;1.00;;;;;;5112735;28;20773;-52
2023/08/10 10:33:32;;;;;;;5.43;1.70;;;22.90;1.00;;;;;;5112548;28;20394;-52
2023/08/10 10:36:14;;;;;;;6.40;2.10;;;22.30;1.00;;;;;;5102307;28;20480;-52
2023/08/10 10:38:56;;;;;;;9.77;2.00;;;22.80;1.00;;;;;;5110068;28;20610;-53
2023/08/10 10:41:31;;;;;;;6.27;1.77;;;22.60;1.00;;;;;;5110889;28;20862;-52
2023/08/10 10:43:59;;;;;;;8.20;1.70;;;22.50;1.00;;;;;;5091709;28;20824;-53
2023/08/10 10:46:36;;;;;;;5.07;1.97;;;23.00;1.00;;;;;;5103356;28;20888;-53
2023/08/10 10:49:06;;;;;;;13.03;1.90;;;23.90;1.00;;;;;;5102213;28;20945;-52
2023/08/10 10:51:32;;;;;;;12.10;2.30;;;24.70;1.00;;;;;;5107333;28;20427;-51
2023/08/10 10:53:58;;;;;;;7.50;1.87;;;25.10;1.00;;;;;;5110482;28;20449;-51
2023/08/10 10:56:27;;;;;;;8.27;1.70;;;25.40;1.00;;;;;;5109945;28;20524;-52
2023/08/10 10:58:52;;;;;;;8.90;1.60;;;25.30;1.00;;;;;;5092575;28;20442;-51
2023/08/10 11:01:19;;;;;;;6.83;1.83;;;24.90;1.00;;;;;;5112421;28;20424;-51
2023/08/10 11:03:54;;;;;;;5.30;1.57;;;24.90;1.00;;;;;;5110518;28;20227;-51
2023/08/10 11:06:20;;;;;;;4.47;1.53;;;24.50;1.00;;;;;;5114777;28;20532;-51
2023/08/10 11:08:56;;;;;;;6.03;1.60;;;23.90;1.00;;;;;;5113991;28;20555;-51
2023/08/10 11:11:22;;;;;;;10.23;1.90;;;23.60;1.00;;;;;;5113521;28;20434;-52
2023/08/10 11:13:48;;;;;;;3.87;1.97;;;22.80;1.00;;;;;;5116042;28;20406;-53
2023/08/10 11:16:15;;;;;;;7.33;2.00;;;22.30;1.00;;;;;;5115110;28;20426;-54
2023/08/10 11:18:47;;;;;;;13.47;1.67;;;21.70;1.00;;;;;;5115629;28;20544;-53
2023/08/10 11:21:13;;;;;;;6.87;1.80;;;21.30;1.00;;;;;;5115829;28;20843;-52
2023/08/10 11:23:39;;;;;;;7.83;1.80;;;20.80;1.00;;;;;;5115016;28;20465;-53
2023/08/10 11:26:05;;;;;;;6.10;1.60;;;21.00;1.00;;;;;;5112854;28;20220;-53
2023/08/10 11:28:31;;;;;;;12.07;2.20;;;22.00;1.00;;;;;;5115452;28;20445;-53
2023/08/10 11:31:01;;;;;;;7.93;2.00;;;23.20;1.00;;;;;;5115721;28;20406;-53
2023/08/10 11:33:27;;;;;;;7.17;1.50;;;23.50;1.00;;;;;;5115222;28;20426;-53
2023/08/10 11:35:53;;;;;;;6.60;1.80;;;23.90;1.00;;;;;;5115314;28;20887;-52
2023/08/10 11:38:19;;;;;;;5.87;1.90;;;24.00;1.00;;;;;;5115293;28;20193;-53
2023/08/10 11:40:45;;;;;;;7.80;1.77;;;24.00;1.00;;;;;;5114968;28;20176;-53
2023/08/10 11:43:15;;;;;;;2.77;1.70;;;24.40;1.00;;;;;;5115406;28;20454;-53
2023/08/10 11:45:42;;;;;;;7.77;1.83;;;25.30;1.00;;;;;;5115645;28;20434;-52
2023/08/10 11:48:13;;;;;;;7.93;2.30;;;26.10;1.00;;;;;;5114725;28;20956;-51
2023/08/10 11:50:39;;;;;;;7.10;2.03;;;26.50;1.00;;;;;;5115117;28;20403;-52
2023/08/10 11:53:10;;;;;;;5.07;2.17;;;26.40;1.00;;;;;;5114757;28;20539;-50
2023/08/10 11:55:44;;;;;;;7.50;2.07;;;25.40;1.00;;;;;;5114649;28;20776;-51
2023/08/10 11:58:13;;;;;;;5.13;1.60;;;24.50;1.00;;;;;;5115157;28;20436;-52
2023/08/10 12:00:39;;;;;;;3.77;1.33;;;24.60;1.00;;;;;;5114802;28;20774;-51
2023/08/10 12:03:22;;;;;;;4.27;1.90;;;25.10;1.00;;;;;;5114438;28;20411;-52
2023/08/10 12:05:52;;;;;;;5.80;1.67;;;25.60;1.00;;;;;;5114821;28;20183;-52
2023/08/10 12:08:27;;;;;;;6.20;1.43;;;26.10;1.00;;;;;;5114398;28;20430;-52
2023/08/10 12:11:04;;;;;;;7.47;1.83;;;25.70;1.00;;;;;;5114333;28;20917;-52
2023/08/10 12:13:31;;;;;;;12.20;3.00;;;25.80;1.00;;;;;;5114067;28;20889;-52
2023/08/10 12:15:58;;;;;;;6.63;1.67;;;26.10;1.00;;;;;;5114005;28;20483;-52
2023/08/10 12:18:24;;;;;;;6.60;1.60;;;26.10;1.00;;;;;;5114108;28;20410;-52
2023/08/10 12:20:51;;;;;;;3.33;1.57;;;25.50;1.00;;;;;;5114312;28;20426;-52
2023/08/10 12:23:19;;;;;;;5.57;1.40;;;26.10;1.00;;;;;;5114223;28;20454;-52
2023/08/10 12:25:47;;;;;;;5.53;1.50;;;26.90;1.00;;;;;;5114291;28;20547;-52
2023/08/10 12:28:15;;;;;;;9.80;2.20;;;27.60;1.00;;;;;;5114523;28;20415;-50
2023/08/10 12:30:41;;;;;;;6.50;2.10;;;27.90;1.00;;;;;;5114217;28;20922;-51
2023/08/10 12:33:06;;;;;;;4.63;1.70;;;28.30;1.00;;;;;;5114024;28;20417;-51
2023/08/10 12:35:32;;;;;;;8.90;1.70;;;28.10;99.90;;;;;;5113535;28;20188;-51
2023/08/10 12:37:58;;;;;;;5.53;1.60;;;27.60;99.90;;;;;;5114064;28;20176;-50
2023/08/10 12:40:24;;;;;;;6.07;1.87;;;27.40;99.90;;;;;;5114073;28;20839;-50
2023/08/10 12:42:50;;;;;;;7.47;1.87;;;27.30;99.90;;;;;;5113939;28;20415;-50
2023/08/10 12:45:17;;;;;;;5.17;1.73;;;26.40;1.00;;;;;;5114039;28;20181;-51
2023/08/10 12:47:43;;;;;;;9.97;2.40;;;25.40;1.00;;;;;;5114244;28;20180;-52